sensor_id;sensor_type;location;lat;lon;timestamp;temperature;humidity
33863;DHT22;20158;51.436;-2.742;2023-01-30T00:00:33;10.70;72.10
33863;DHT22;20158;51.436;-2.742;2023-01-30T00:02:59;10.70;72.20
33863;DHT22;20158;51.436;-2.742;2023-01-30T00:05:25;10.70;72.20
33863;DHT22;20158;51.436;-2.742;2023-01-30T00:07:51;10.70;72.20
33863;DHT22;20158;51.436;-2.742;2023-01-30T00:10:17;10.70;72.20
33863;DHT22;20158;51.436;-2.742;2023-01-30T00:12:43;10.70;72.20
33863;DHT22;20158;51.436;-2.742;2023-01-30T00:15:09;10.80;72.50
33863;DHT22;20158;51.436;-2.742;2023-01-30T00:17:35;10.80;72.40
33863;DHT22;20158;51.436;-2.742;2023-01-30T00:20:02;10.80;72.50
33863;DHT22;20158;51.436;-2.742;2023-01-30T00:22:27;10.80;72.50
33863;DHT22;20158;51.436;-2.742;2023-01-30T00:24:53;10.80;72.50
33863;DHT22;20158;51.436;-2.742;2023-01-30T00:27:19;10.80;72.50
33863;DHT22;20158;51.436;-2.742;2023-01-30T00:29:45;10.80;72.50
33863;DHT22;20158;51.436;-2.742;2023-01-30T00:32:11;10.80;72.50
33863;DHT22;20158;51.436;-2.742;2023-01-30T00:34:39;10.80;72.50
33863;DHT22;20158;51.436;-2.742;2023-01-30T00:37:07;10.80;72.50
33863;DHT22;20158;51.436;-2.742;2023-01-30T00:39:33;10.80;72.50
33863;DHT22;20158;51.436;-2.742;2023-01-30T00:42:00;10.70;72.30
33863;DHT22;20158;51.436;-2.742;2023-01-30T00:44:45;10.80;72.60
33863;DHT22;20158;51.436;-2.742;2023-01-30T00:47:29;10.80;72.50
33863;DHT22;20158;51.436;-2.742;2023-01-30T00:49:55;10.80;72.60
33863;DHT22;20158;51.436;-2.742;2023-01-30T00:52:21;10.80;72.60
33863;DHT22;20158;51.436;-2.742;2023-01-30T00:54:47;10.80;72.60
33863;DHT22;20158;51.436;-2.742;2023-01-30T00:57:16;10.80;72.60
33863;DHT22;20158;51.436;-2.742;2023-01-30T00:59:41;10.80;72.60
33863;DHT22;20158;51.436;-2.742;2023-01-30T01:02:10;10.80;72.70
33863;DHT22;20158;51.436;-2.742;2023-01-30T01:04:36;10.80;72.70
33863;DHT22;20158;51.436;-2.742;2023-01-30T01:07:09;10.80;72.70
33863;DHT22;20158;51.436;-2.742;2023-01-30T01:09:35;10.80;72.70
33863;DHT22;20158;51.436;-2.742;2023-01-30T01:12:01;10.80;72.70
33863;DHT22;20158;51.436;-2.742;2023-01-30T01:14:27;10.80;72.60
33863;DHT22;20158;51.436;-2.742;2023-01-30T01:16:53;10.80;72.70
33863;DHT22;20158;51.436;-2.742;2023-01-30T01:19:21;10.80;72.70
33863;DHT22;20158;51.436;-2.742;2023-01-30T01:21:47;10.90;72.80
33863;DHT22;20158;51.436;-2.742;2023-01-30T01:24:14;10.80;72.60
33863;DHT22;20158;51.436;-2.742;2023-01-30T01:26:40;10.80;72.70
33863;DHT22;20158;51.436;-2.742;2023-01-30T01:29:14;10.80;72.60
33863;DHT22;20158;51.436;-2.742;2023-01-30T01:31:41;10.80;72.60
33863;DHT22;20158;51.436;-2.742;2023-01-30T01:34:07;10.90;72.80
33863;DHT22;20158;51.436;-2.742;2023-01-30T01:36:33;10.80;72.60
33863;DHT22;20158;51.436;-2.742;2023-01-30T01:38:59;10.80;72.60
33863;DHT22;20158;51.436;-2.742;2023-01-30T01:41:25;10.80;72.60
33863;DHT22;20158;51.436;-2.742;2023-01-30T01:49:02;10.80;72.70
33863;DHT22;20158;51.436;-2.742;2023-01-30T01:51:37;10.80;72.70
33863;DHT22;20158;51.436;-2.742;2023-01-30T01:57:08;10.80;72.70
33863;DHT22;20158;51.436;-2.742;2023-01-30T01:59:44;10.80;72.70
33863;DHT22;20158;51.436;-2.742;2023-01-30T02:02:12;10.80;72.80
33863;DHT22;20158;51.436;-2.742;2023-01-30T02:04:41;10.80;72.70
33863;DHT22;20158;51.436;-2.742;2023-01-30T02:10:00;10.70;72.60
33863;DHT22;20158;51.436;-2.742;2023-01-30T02:12:26;10.70;72.60
33863;DHT22;20158;51.436;-2.742;2023-01-30T02:14:53;10.80;72.80
33863;DHT22;20158;51.436;-2.742;2023-01-30T02:17:22;10.70;72.60
33863;DHT22;20158;51.436;-2.742;2023-01-30T02:22:37;10.80;72.80
33863;DHT22;20158;51.436;-2.742;2023-01-30T02:44:41;10.70;72.80
33863;DHT22;20158;51.436;-2.742;2023-01-30T02:47:10;10.70;72.80
33863;DHT22;20158;51.436;-2.742;2023-01-30T02:49:43;10.70;72.80
33863;DHT22;20158;51.436;-2.742;2023-01-30T02:52:13;10.70;72.80
33863;DHT22;20158;51.436;-2.742;2023-01-30T02:54:39;10.70;72.90
33863;DHT22;20158;51.436;-2.742;2023-01-30T02:57:21;10.70;72.90
33863;DHT22;20158;51.436;-2.742;2023-01-30T02:59:55;10.70;73.00
33863;DHT22;20158;51.436;-2.742;2023-01-30T03:05:19;10.70;73.00
33863;DHT22;20158;51.436;-2.742;2023-01-30T03:10:54;10.70;73.10
33863;DHT22;20158;51.436;-2.742;2023-01-30T03:13:43;10.70;73.00
33863;DHT22;20158;51.436;-2.742;2023-01-30T03:16:30;10.60;72.90
33863;DHT22;20158;51.436;-2.742;2023-01-30T03:19:02;10.70;73.00
33863;DHT22;20158;51.436;-2.742;2023-01-30T03:21:30;10.70;73.00
33863;DHT22;20158;51.436;-2.742;2023-01-30T03:23:57;10.70;73.00
33863;DHT22;20158;51.436;-2.742;2023-01-30T03:26:27;10.70;73.00
33863;DHT22;20158;51.436;-2.742;2023-01-30T03:28:55;10.70;73.10
33863;DHT22;20158;51.436;-2.742;2023-01-30T03:31:21;10.60;72.90
33863;DHT22;20158;51.436;-2.742;2023-01-30T03:33:47;10.70;73.00
33863;DHT22;20158;51.436;-2.742;2023-01-30T03:36:14;10.70;73.10
33863;DHT22;20158;51.436;-2.742;2023-01-30T03:38:40;10.70;73.10
33863;DHT22;20158;51.436;-2.742;2023-01-30T03:41:06;10.60;72.90
33863;DHT22;20158;51.436;-2.742;2023-01-30T03:43:33;10.60;72.90
33863;DHT22;20158;51.436;-2.742;2023-01-30T03:46:01;10.70;73.10
33863;DHT22;20158;51.436;-2.742;2023-01-30T03:48:28;10.70;73.10
33863;DHT22;20158;51.436;-2.742;2023-01-30T03:50:55;10.70;73.10
33863;DHT22;20158;51.436;-2.742;2023-01-30T03:53:21;10.70;73.10
33863;DHT22;20158;51.436;-2.742;2023-01-30T03:55:47;10.70;73.10
33863;DHT22;20158;51.436;-2.742;2023-01-30T03:58:13;10.70;73.10
33863;DHT22;20158;51.436;-2.742;2023-01-30T04:00:39;10.70;73.10
33863;DHT22;20158;51.436;-2.742;2023-01-30T04:03:05;10.70;73.10
33863;DHT22;20158;51.436;-2.742;2023-01-30T04:05:31;10.70;73.10
33863;DHT22;20158;51.436;-2.742;2023-01-30T04:08:02;10.70;73.10
33863;DHT22;20158;51.436;-2.742;2023-01-30T04:10:28;10.70;73.10
33863;DHT22;20158;51.436;-2.742;2023-01-30T04:12:55;10.70;73.10
33863;DHT22;20158;51.436;-2.742;2023-01-30T04:15:22;10.70;73.00
33863;DHT22;20158;51.436;-2.742;2023-01-30T04:18:09;10.70;72.90
33863;DHT22;20158;51.436;-2.742;2023-01-30T04:20:38;10.70;72.90
33863;DHT22;20158;51.436;-2.742;2023-01-30T04:23:04;10.70;72.80
33863;DHT22;20158;51.436;-2.742;2023-01-30T04:25:30;10.60;72.60
33863;DHT22;20158;51.436;-2.742;2023-01-30T04:27:57;10.60;72.50
33863;DHT22;20158;51.436;-2.742;2023-01-30T04:30:27;10.60;72.50
33863;DHT22;20158;51.436;-2.742;2023-01-30T04:33:13;10.60;72.50
33863;DHT22;20158;51.436;-2.742;2023-01-30T04:35:39;10.50;72.20
33863;DHT22;20158;51.436;-2.742;2023-01-30T04:38:05;10.50;72.10
33863;DHT22;20158;51.436;-2.742;2023-01-30T04:40:31;10.50;72.10
33863;DHT22;20158;51.436;-2.742;2023-01-30T04:42:57;10.50;72.10
33863;DHT22;20158;51.436;-2.742;2023-01-30T04:45:42;10.40;71.80
33863;DHT22;20158;51.436;-2.742;2023-01-30T04:48:09;10.40;71.80
33863;DHT22;20158;51.436;-2.742;2023-01-30T04:50:35;10.40;71.80
33863;DHT22;20158;51.436;-2.742;2023-01-30T04:53:01;10.30;71.60
33863;DHT22;20158;51.436;-2.742;2023-01-30T04:55:27;10.30;71.60
33863;DHT22;20158;51.436;-2.742;2023-01-30T04:57:53;10.30;71.60
33863;DHT22;20158;51.436;-2.742;2023-01-30T05:00:19;10.30;71.60
33863;DHT22;20158;51.436;-2.742;2023-01-30T05:02:51;10.20;71.40
33863;DHT22;20158;51.436;-2.742;2023-01-30T05:05:17;10.20;71.40
33863;DHT22;20158;51.436;-2.742;2023-01-30T05:07:44;10.20;71.30
33863;DHT22;20158;51.436;-2.742;2023-01-30T05:10:10;10.20;71.20
33863;DHT22;20158;51.436;-2.742;2023-01-30T05:12:36;10.10;71.00
33863;DHT22;20158;51.436;-2.742;2023-01-30T05:15:02;10.10;71.00
33863;DHT22;20158;51.436;-2.742;2023-01-30T05:17:28;10.10;71.00
33863;DHT22;20158;51.436;-2.742;2023-01-30T05:19:54;10.00;70.80
33863;DHT22;20158;51.436;-2.742;2023-01-30T05:22:20;10.00;70.80
33863;DHT22;20158;51.436;-2.742;2023-01-30T05:24:46;10.00;70.80
33863;DHT22;20158;51.436;-2.742;2023-01-30T05:27:12;10.00;70.80
33863;DHT22;20158;51.436;-2.742;2023-01-30T05:29:38;9.90;70.60
33863;DHT22;20158;51.436;-2.742;2023-01-30T05:32:04;9.90;70.60
33863;DHT22;20158;51.436;-2.742;2023-01-30T05:34:30;9.80;70.40
33863;DHT22;20158;51.436;-2.742;2023-01-30T05:36:56;9.80;70.50
33863;DHT22;20158;51.436;-2.742;2023-01-30T05:39:22;9.70;70.40
33863;DHT22;20158;51.436;-2.742;2023-01-30T05:41:47;9.70;70.40
33863;DHT22;20158;51.436;-2.742;2023-01-30T05:44:13;9.60;70.30
33863;DHT22;20158;51.436;-2.742;2023-01-30T05:46:40;9.60;70.30
33863;DHT22;20158;51.436;-2.742;2023-01-30T05:49:06;9.60;70.30
33863;DHT22;20158;51.436;-2.742;2023-01-30T05:51:32;9.50;70.10
33863;DHT22;20158;51.436;-2.742;2023-01-30T05:53:58;9.50;70.10
33863;DHT22;20158;51.436;-2.742;2023-01-30T05:56:24;9.50;70.10
33863;DHT22;20158;51.436;-2.742;2023-01-30T05:58:52;9.40;69.90
33863;DHT22;20158;51.436;-2.742;2023-01-30T06:01:18;9.40;70.00
33863;DHT22;20158;51.436;-2.742;2023-01-30T06:03:45;9.40;70.00
33863;DHT22;20158;51.436;-2.742;2023-01-30T06:06:11;9.30;69.70
33863;DHT22;20158;51.436;-2.742;2023-01-30T06:08:38;9.30;69.70
33863;DHT22;20158;51.436;-2.742;2023-01-30T06:11:09;9.30;69.70
33863;DHT22;20158;51.436;-2.742;2023-01-30T06:13:36;9.30;70.20
33863;DHT22;20158;51.436;-2.742;2023-01-30T06:16:04;9.20;69.60
33863;DHT22;20158;51.436;-2.742;2023-01-30T06:18:30;9.20;69.50
33863;DHT22;20158;51.436;-2.742;2023-01-30T06:20:56;9.20;70.10
33863;DHT22;20158;51.436;-2.742;2023-01-30T06:23:22;9.20;69.50
33863;DHT22;20158;51.436;-2.742;2023-01-30T06:25:49;9.10;69.30
33863;DHT22;20158;51.436;-2.742;2023-01-30T06:28:15;9.10;69.30
33863;DHT22;20158;51.436;-2.742;2023-01-30T06:30:42;9.00;69.10
33863;DHT22;20158;51.436;-2.742;2023-01-30T06:33:08;9.00;69.10
33863;DHT22;20158;51.436;-2.742;2023-01-30T06:35:37;9.00;69.00
33863;DHT22;20158;51.436;-2.742;2023-01-30T06:38:03;9.00;69.00
33863;DHT22;20158;51.436;-2.742;2023-01-30T06:40:29;9.00;68.90
33863;DHT22;20158;51.436;-2.742;2023-01-30T06:42:55;8.90;68.70
33863;DHT22;20158;51.436;-2.742;2023-01-30T06:45:21;8.90;68.70
33863;DHT22;20158;51.436;-2.742;2023-01-30T06:47:49;8.90;68.70
33863;DHT22;20158;51.436;-2.742;2023-01-30T06:50:17;8.90;68.60
33863;DHT22;20158;51.436;-2.742;2023-01-30T06:52:44;8.90;68.50
33863;DHT22;20158;51.436;-2.742;2023-01-30T06:55:13;8.90;68.70
33863;DHT22;20158;51.436;-2.742;2023-01-30T06:57:40;8.90;69.00
33863;DHT22;20158;51.436;-2.742;2023-01-30T07:00:12;9.00;69.10
33863;DHT22;20158;51.436;-2.742;2023-01-30T07:02:39;9.00;69.20
33863;DHT22;20158;51.436;-2.742;2023-01-30T07:05:06;9.10;69.30
33863;DHT22;20158;51.436;-2.742;2023-01-30T07:07:32;9.20;69.50
33863;DHT22;20158;51.436;-2.742;2023-01-30T07:09:58;9.30;69.70
33863;DHT22;20158;51.436;-2.742;2023-01-30T07:12:25;9.30;69.60
33863;DHT22;20158;51.436;-2.742;2023-01-30T07:14:52;9.30;69.60
33863;DHT22;20158;51.436;-2.742;2023-01-30T07:17:19;9.30;69.40
33863;DHT22;20158;51.436;-2.742;2023-01-30T07:19:45;9.30;69.30
33863;DHT22;20158;51.436;-2.742;2023-01-30T07:22:12;9.30;69.30
33863;DHT22;20158;51.436;-2.742;2023-01-30T07:24:38;9.30;69.20
33863;DHT22;20158;51.436;-2.742;2023-01-30T07:27:11;9.30;69.20
33863;DHT22;20158;51.436;-2.742;2023-01-30T07:29:38;9.30;69.20
33863;DHT22;20158;51.436;-2.742;2023-01-30T07:32:05;9.20;69.00
33863;DHT22;20158;51.436;-2.742;2023-01-30T07:34:31;9.20;68.90
33863;DHT22;20158;51.436;-2.742;2023-01-30T07:36:57;9.20;68.90
33863;DHT22;20158;51.436;-2.742;2023-01-30T07:39:23;9.10;68.60
33863;DHT22;20158;51.436;-2.742;2023-01-30T07:41:49;9.20;68.80
33863;DHT22;20158;51.436;-2.742;2023-01-30T07:44:16;9.10;69.10
33863;DHT22;20158;51.436;-2.742;2023-01-30T07:46:42;9.00;68.90
33863;DHT22;20158;51.436;-2.742;2023-01-30T07:49:09;9.00;68.40
33863;DHT22;20158;51.436;-2.742;2023-01-30T07:51:35;9.00;68.30
33863;DHT22;20158;51.436;-2.742;2023-01-30T07:54:01;9.00;68.40
33863;DHT22;20158;51.436;-2.742;2023-01-30T07:56:29;8.90;68.20
33863;DHT22;20158;51.436;-2.742;2023-01-30T07:58:55;8.90;68.10
33863;DHT22;20158;51.436;-2.742;2023-01-30T08:01:21;8.90;68.10
33863;DHT22;20158;51.436;-2.742;2023-01-30T08:03:48;8.90;68.10
33863;DHT22;20158;51.436;-2.742;2023-01-30T08:06:15;8.80;67.80
33863;DHT22;20158;51.436;-2.742;2023-01-30T08:08:41;8.80;67.80
33863;DHT22;20158;51.436;-2.742;2023-01-30T08:11:07;8.80;67.80
33863;DHT22;20158;51.436;-2.742;2023-01-30T08:13:34;8.80;67.70
33863;DHT22;20158;51.436;-2.742;2023-01-30T08:16:04;8.80;67.70
33863;DHT22;20158;51.436;-2.742;2023-01-30T08:18:31;8.80;67.60
33863;DHT22;20158;51.436;-2.742;2023-01-30T08:21:06;8.80;67.60
33863;DHT22;20158;51.436;-2.742;2023-01-30T08:23:32;8.70;67.40
33863;DHT22;20158;51.436;-2.742;2023-01-30T08:26:00;8.80;67.60
33863;DHT22;20158;51.436;-2.742;2023-01-30T08:28:28;8.80;67.50
33863;DHT22;20158;51.436;-2.742;2023-01-30T08:30:54;8.80;67.40
33863;DHT22;20158;51.436;-2.742;2023-01-30T08:33:21;8.80;67.30
33863;DHT22;20158;51.436;-2.742;2023-01-30T08:35:47;8.80;67.30
33863;DHT22;20158;51.436;-2.742;2023-01-30T08:38:13;8.80;67.20
33863;DHT22;20158;51.436;-2.742;2023-01-30T08:40:39;8.80;67.10
33863;DHT22;20158;51.436;-2.742;2023-01-30T08:43:06;8.80;67.00
33863;DHT22;20158;51.436;-2.742;2023-01-30T08:45:32;8.80;66.90
33863;DHT22;20158;51.436;-2.742;2023-01-30T08:47:59;8.90;67.00
33863;DHT22;20158;51.436;-2.742;2023-01-30T08:50:26;8.90;66.90
33863;DHT22;20158;51.436;-2.742;2023-01-30T08:52:52;9.00;67.00
33863;DHT22;20158;51.436;-2.742;2023-01-30T08:55:18;9.00;66.90
33863;DHT22;20158;51.436;-2.742;2023-01-30T08:57:44;9.00;66.80
33863;DHT22;20158;51.436;-2.742;2023-01-30T09:00:10;9.00;66.70
33863;DHT22;20158;51.436;-2.742;2023-01-30T09:02:37;9.10;66.80
33863;DHT22;20158;51.436;-2.742;2023-01-30T09:05:04;9.10;66.70
33863;DHT22;20158;51.436;-2.742;2023-01-30T09:07:30;9.20;66.70
33863;DHT22;20158;51.436;-2.742;2023-01-30T09:09:56;9.20;66.60
33863;DHT22;20158;51.436;-2.742;2023-01-30T09:12:22;9.30;66.60
33863;DHT22;20158;51.436;-2.742;2023-01-30T09:14:48;9.30;66.50
33863;DHT22;20158;51.436;-2.742;2023-01-30T09:17:14;9.40;66.60
33863;DHT22;20158;51.436;-2.742;2023-01-30T09:19:40;9.40;66.50
33863;DHT22;20158;51.436;-2.742;2023-01-30T09:22:06;9.40;66.40
33863;DHT22;20158;51.436;-2.742;2023-01-30T09:24:32;9.40;66.30
33863;DHT22;20158;51.436;-2.742;2023-01-30T09:26:58;9.40;66.30
33863;DHT22;20158;51.436;-2.742;2023-01-30T09:29:25;9.40;66.20
33863;DHT22;20158;51.436;-2.742;2023-01-30T09:31:53;9.50;66.30
33863;DHT22;20158;51.436;-2.742;2023-01-30T09:34:22;9.50;66.20
33863;DHT22;20158;51.436;-2.742;2023-01-30T09:36:59;9.60;66.20
33863;DHT22;20158;51.436;-2.742;2023-01-30T09:39:26;9.70;66.30
33863;DHT22;20158;51.436;-2.742;2023-01-30T09:42:21;9.70;66.00
33863;DHT22;20158;51.436;-2.742;2023-01-30T09:48:14;9.80;65.80
33863;DHT22;20158;51.436;-2.742;2023-01-30T09:55:40;9.90;65.70
33863;DHT22;20158;51.436;-2.742;2023-01-30T09:58:16;9.90;65.70
33863;DHT22;20158;51.436;-2.742;2023-01-30T10:00:43;9.80;65.60
33863;DHT22;20158;51.436;-2.742;2023-01-30T10:03:20;9.80;65.60
33863;DHT22;20158;51.436;-2.742;2023-01-30T10:05:50;9.80;65.60
33863;DHT22;20158;51.436;-2.742;2023-01-30T10:20:00;9.80;65.50
33863;DHT22;20158;51.436;-2.742;2023-01-30T10:25:45;9.80;65.40
33863;DHT22;20158;51.436;-2.742;2023-01-30T10:29:02;9.90;65.40
33863;DHT22;20158;51.436;-2.742;2023-01-30T10:31:31;9.90;65.40
33863;DHT22;20158;51.436;-2.742;2023-01-30T10:34:06;9.90;65.40
33863;DHT22;20158;51.436;-2.742;2023-01-30T10:36:56;9.90;65.30
33863;DHT22;20158;51.436;-2.742;2023-01-30T10:39:25;9.90;65.20
33863;DHT22;20158;51.436;-2.742;2023-01-30T10:42:11;9.90;65.20
33863;DHT22;20158;51.436;-2.742;2023-01-30T10:44:39;9.90;65.10
33863;DHT22;20158;51.436;-2.742;2023-01-30T10:50:04;9.90;65.10
33863;DHT22;20158;51.436;-2.742;2023-01-30T10:52:44;9.90;65.10
33863;DHT22;20158;51.436;-2.742;2023-01-30T11:01:12;10.00;65.20
33863;DHT22;20158;51.436;-2.742;2023-01-30T11:03:47;9.90;65.00
33863;DHT22;20158;51.436;-2.742;2023-01-30T11:06:22;10.00;65.10
33863;DHT22;20158;51.436;-2.742;2023-01-30T11:08:49;10.00;65.00
33863;DHT22;20158;51.436;-2.742;2023-01-30T11:11:31;10.00;65.00
33863;DHT22;20158;51.436;-2.742;2023-01-30T11:14:05;10.00;64.90
33863;DHT22;20158;51.436;-2.742;2023-01-30T11:16:39;10.00;64.90
33863;DHT22;20158;51.436;-2.742;2023-01-30T11:19:08;9.90;64.80
33863;DHT22;20158;51.436;-2.742;2023-01-30T11:21:34;10.00;64.90
33863;DHT22;20158;51.436;-2.742;2023-01-30T11:24:18;9.90;64.70
33863;DHT22;20158;51.436;-2.742;2023-01-30T11:26:47;10.00;64.90
33863;DHT22;20158;51.436;-2.742;2023-01-30T11:29:32;10.00;64.90
33863;DHT22;20158;51.436;-2.742;2023-01-30T11:32:25;10.00;64.80
33863;DHT22;20158;51.436;-2.742;2023-01-30T11:39:59;10.10;64.80
33863;DHT22;20158;51.436;-2.742;2023-01-30T11:42:32;10.10;64.70
33863;DHT22;20158;51.436;-2.742;2023-01-30T11:44:59;10.10;64.60
33863;DHT22;20158;51.436;-2.742;2023-01-30T11:47:27;10.20;64.70
33863;DHT22;20158;51.436;-2.742;2023-01-30T11:49:55;10.20;64.60
33863;DHT22;20158;51.436;-2.742;2023-01-30T11:52:27;10.30;64.70
33863;DHT22;20158;51.436;-2.742;2023-01-30T11:55:01;10.30;64.70
33863;DHT22;20158;51.436;-2.742;2023-01-30T11:57:42;10.50;65.00
33863;DHT22;20158;51.436;-2.742;2023-01-30T12:00:42;10.60;65.10
33863;DHT22;20158;51.436;-2.742;2023-01-30T12:03:17;10.60;65.30
33863;DHT22;20158;51.436;-2.742;2023-01-30T12:05:44;10.70;65.30
33863;DHT22;20158;51.436;-2.742;2023-01-30T12:10:44;10.80;65.30
33863;DHT22;20158;51.436;-2.742;2023-01-30T12:13:40;10.80;65.30
33863;DHT22;20158;51.436;-2.742;2023-01-30T12:16:33;10.90;65.50
33863;DHT22;20158;51.436;-2.742;2023-01-30T12:19:11;10.90;65.60
33863;DHT22;20158;51.436;-2.742;2023-01-30T12:21:48;10.90;65.60
33863;DHT22;20158;51.436;-2.742;2023-01-30T12:24:56;11.00;65.70
33863;DHT22;20158;51.436;-2.742;2023-01-30T12:28:01;11.00;65.70
33863;DHT22;20158;51.436;-2.742;2023-01-30T12:30:31;11.00;65.60
33863;DHT22;20158;51.436;-2.742;2023-01-30T12:33:00;11.00;65.60
33863;DHT22;20158;51.436;-2.742;2023-01-30T12:38:30;11.10;65.60
33863;DHT22;20158;51.436;-2.742;2023-01-30T12:54:45;11.20;65.30
33863;DHT22;20158;51.436;-2.742;2023-01-30T13:05:50;11.30;65.00
33863;DHT22;20158;51.436;-2.742;2023-01-30T13:08:12;11.30;65.00
33863;DHT22;20158;51.436;-2.742;2023-01-30T13:10:50;11.40;65.10
33863;DHT22;20158;51.436;-2.742;2023-01-30T13:16:12;11.40;65.00
33863;DHT22;20158;51.436;-2.742;2023-01-30T13:18:55;11.40;64.90
33863;DHT22;20158;51.436;-2.742;2023-01-30T13:21:33;11.40;64.90
33863;DHT22;20158;51.436;-2.742;2023-01-30T13:24:30;11.40;64.90
33863;DHT22;20158;51.436;-2.742;2023-01-30T13:26:52;11.50;65.00
33863;DHT22;20158;51.436;-2.742;2023-01-30T13:29:28;11.50;64.90
33863;DHT22;20158;51.436;-2.742;2023-01-30T13:31:58;11.50;64.90
33863;DHT22;20158;51.436;-2.742;2023-01-30T13:34:40;11.50;64.80
33863;DHT22;20158;51.436;-2.742;2023-01-30T13:37:17;11.50;64.70
33863;DHT22;20158;51.436;-2.742;2023-01-30T13:45:01;11.70;64.70
33863;DHT22;20158;51.436;-2.742;2023-01-30T13:47:51;11.70;64.70
33863;DHT22;20158;51.436;-2.742;2023-01-30T13:52:59;11.80;64.50
33863;DHT22;20158;51.436;-2.742;2023-01-30T13:58:04;12.00;64.50
33863;DHT22;20158;51.436;-2.742;2023-01-30T14:00:35;12.00;64.20
33863;DHT22;20158;51.436;-2.742;2023-01-30T14:08:26;12.20;63.90
33863;DHT22;20158;51.436;-2.742;2023-01-30T14:10:53;12.20;63.80
33863;DHT22;20158;51.436;-2.742;2023-01-30T14:13:21;12.10;63.70
33863;DHT22;20158;51.436;-2.742;2023-01-30T14:16:00;12.10;63.70
33863;DHT22;20158;51.436;-2.742;2023-01-30T14:18:34;12.20;63.80
33863;DHT22;20158;51.436;-2.742;2023-01-30T14:21:20;12.20;63.80
33863;DHT22;20158;51.436;-2.742;2023-01-30T14:24:00;12.20;63.70
33863;DHT22;20158;51.436;-2.742;2023-01-30T14:34:49;12.20;63.70
33863;DHT22;20158;51.436;-2.742;2023-01-30T14:39:55;12.20;63.60
33863;DHT22;20158;51.436;-2.742;2023-01-30T14:42:26;12.20;63.60
33863;DHT22;20158;51.436;-2.742;2023-01-30T14:45:14;12.20;63.50
33863;DHT22;20158;51.436;-2.742;2023-01-30T14:47:40;12.10;63.30
33863;DHT22;20158;51.436;-2.742;2023-01-30T14:50:20;12.10;63.40
33863;DHT22;20158;51.436;-2.742;2023-01-30T14:52:48;12.10;63.40
33863;DHT22;20158;51.436;-2.742;2023-01-30T14:55:18;12.10;63.40
33863;DHT22;20158;51.436;-2.742;2023-01-30T14:58:14;12.10;63.50
33863;DHT22;20158;51.436;-2.742;2023-01-30T15:00:42;12.20;63.60
33863;DHT22;20158;51.436;-2.742;2023-01-30T15:03:17;12.20;63.50
33863;DHT22;20158;51.436;-2.742;2023-01-30T15:05:46;12.30;63.50
33863;DHT22;20158;51.436;-2.742;2023-01-30T15:08:17;12.30;63.50
33863;DHT22;20158;51.436;-2.742;2023-01-30T15:26:29;12.40;62.90
33863;DHT22;20158;51.436;-2.742;2023-01-30T15:34:20;12.50;62.70
33863;DHT22;20158;51.436;-2.742;2023-01-30T15:36:46;12.50;62.70
33863;DHT22;20158;51.436;-2.742;2023-01-30T15:39:22;12.50;62.70
33863;DHT22;20158;51.436;-2.742;2023-01-30T15:41:49;12.50;62.70
33863;DHT22;20158;51.436;-2.742;2023-01-30T15:44:49;12.40;62.50
33863;DHT22;20158;51.436;-2.742;2023-01-30T15:50:06;12.30;62.30
33863;DHT22;20158;51.436;-2.742;2023-01-30T15:52:45;12.30;62.40
33863;DHT22;20158;51.436;-2.742;2023-01-30T15:55:25;12.20;62.10
33863;DHT22;20158;51.436;-2.742;2023-01-30T15:57:56;12.10;62.00
33863;DHT22;20158;51.436;-2.742;2023-01-30T16:00:34;12.10;62.20
33863;DHT22;20158;51.436;-2.742;2023-01-30T16:03:03;12.00;62.00
33863;DHT22;20158;51.436;-2.742;2023-01-30T16:05:30;12.00;62.10
33863;DHT22;20158;51.436;-2.742;2023-01-30T16:07:57;12.00;62.10
33863;DHT22;20158;51.436;-2.742;2023-01-30T16:10:26;12.00;62.20
33863;DHT22;20158;51.436;-2.742;2023-01-30T16:12:54;11.90;62.00
33863;DHT22;20158;51.436;-2.742;2023-01-30T16:20:43;11.80;62.00
33863;DHT22;20158;51.436;-2.742;2023-01-30T16:26:15;11.80;62.10
33863;DHT22;20158;51.436;-2.742;2023-01-30T16:28:42;11.70;62.00
33863;DHT22;20158;51.436;-2.742;2023-01-30T16:31:09;11.70;62.10
33863;DHT22;20158;51.436;-2.742;2023-01-30T16:33:36;11.60;62.00
33863;DHT22;20158;51.436;-2.742;2023-01-30T16:38:52;11.60;62.00
33863;DHT22;20158;51.436;-2.742;2023-01-30T16:44:19;11.40;61.80
33863;DHT22;20158;51.436;-2.742;2023-01-30T16:47:01;11.40;61.90
33863;DHT22;20158;51.436;-2.742;2023-01-30T16:52:22;11.30;62.00
33863;DHT22;20158;51.436;-2.742;2023-01-30T16:57:42;11.20;62.00
33863;DHT22;20158;51.436;-2.742;2023-01-30T17:00:27;11.20;62.10
33863;DHT22;20158;51.436;-2.742;2023-01-30T17:03:05;11.10;62.10
33863;DHT22;20158;51.436;-2.742;2023-01-30T17:05:42;11.00;62.00
33863;DHT22;20158;51.436;-2.742;2023-01-30T17:11:04;11.00;62.30
33863;DHT22;20158;51.436;-2.742;2023-01-30T17:13:36;10.90;62.30
33863;DHT22;20158;51.436;-2.742;2023-01-30T17:18:52;10.80;62.30
33863;DHT22;20158;51.436;-2.742;2023-01-30T17:21:19;10.80;62.40
33863;DHT22;20158;51.436;-2.742;2023-01-30T17:24:01;10.80;62.50
33863;DHT22;20158;51.436;-2.742;2023-01-30T17:26:28;10.70;62.40
33863;DHT22;20158;51.436;-2.742;2023-01-30T17:28:54;10.70;62.50
33863;DHT22;20158;51.436;-2.742;2023-01-30T17:31:20;10.60;62.40
33863;DHT22;20158;51.436;-2.742;2023-01-30T17:33:46;10.60;62.50
33863;DHT22;20158;51.436;-2.742;2023-01-30T17:38:46;10.50;62.50
33863;DHT22;20158;51.436;-2.742;2023-01-30T17:41:18;10.50;62.60
33863;DHT22;20158;51.436;-2.742;2023-01-30T17:43:45;10.40;62.50
33863;DHT22;20158;51.436;-2.742;2023-01-30T17:46:12;10.40;62.70
33863;DHT22;20158;51.436;-2.742;2023-01-30T17:48:38;10.40;63.10
33863;DHT22;20158;51.436;-2.742;2023-01-30T17:51:04;10.40;63.70
33863;DHT22;20158;51.436;-2.742;2023-01-30T17:53:30;10.40;63.20
33863;DHT22;20158;51.436;-2.742;2023-01-30T17:55:56;10.40;63.30
33863;DHT22;20158;51.436;-2.742;2023-01-30T17:58:23;10.40;63.40
33863;DHT22;20158;51.436;-2.742;2023-01-30T18:00:49;10.40;63.70
33863;DHT22;20158;51.436;-2.742;2023-01-30T18:03:15;10.40;63.90
33863;DHT22;20158;51.436;-2.742;2023-01-30T18:05:41;10.50;64.20
33863;DHT22;20158;51.436;-2.742;2023-01-30T18:08:07;10.50;64.30
33863;DHT22;20158;51.436;-2.742;2023-01-30T18:10:33;10.50;64.40
33863;DHT22;20158;51.436;-2.742;2023-01-30T18:12:59;10.60;64.60
33863;DHT22;20158;51.436;-2.742;2023-01-30T18:15:25;10.60;64.80
33863;DHT22;20158;51.436;-2.742;2023-01-30T18:17:51;10.60;64.80
33863;DHT22;20158;51.436;-2.742;2023-01-30T18:20:21;10.60;64.90
33863;DHT22;20158;51.436;-2.742;2023-01-30T18:22:47;10.60;65.00
33863;DHT22;20158;51.436;-2.742;2023-01-30T18:25:14;10.70;65.40
33863;DHT22;20158;51.436;-2.742;2023-01-30T18:27:41;10.70;65.50
33863;DHT22;20158;51.436;-2.742;2023-01-30T18:30:13;10.70;65.60
33863;DHT22;20158;51.436;-2.742;2023-01-30T18:32:39;10.70;65.50
33863;DHT22;20158;51.436;-2.742;2023-01-30T18:35:05;10.60;65.30
33863;DHT22;20158;51.436;-2.742;2023-01-30T18:37:31;10.60;65.40
33863;DHT22;20158;51.436;-2.742;2023-01-30T18:39:57;10.50;65.30
33863;DHT22;20158;51.436;-2.742;2023-01-30T18:42:23;10.40;65.10